sensor_id;sensor_type;location;lat;lon;timestamp;P1;durP1;ratioP1;P2;durP2;ratioP2
10446;SDS011;5271;44.422;26.092;2023-02-01T00:02:08;1.70;;;1.70;;
10446;SDS011;5271;44.422;26.092;2023-02-01T00:04:35;1.70;;;1.70;;
10446;SDS011;5271;44.422;26.092;2023-02-01T00:07:02;1.70;;;1.70;;
10446;SDS011;5271;44.422;26.092;2023-02-01T00:09:30;1.80;;;1.80;;
10446;SDS011;5271;44.422;26.092;2023-02-01T00:11:57;1.60;;;1.60;;
10446;SDS011;5271;44.422;26.092;2023-02-01T00:14:26;1.60;;;1.60;;
10446;SDS011;5271;44.422;26.092;2023-02-01T00:16:54;1.67;;;1.67;;
10446;SDS011;5271;44.422;26.092;2023-02-01T00:19:20;1.70;;;1.70;;
10446;SDS011;5271;44.422;26.092;2023-02-01T00:21:47;1.60;;;1.60;;
10446;SDS011;5271;44.422;26.092;2023-02-01T00:24:14;1.60;;;1.60;;
10446;SDS011;5271;44.422;26.092;2023-02-01T00:26:43;1.60;;;1.60;;
10446;SDS011;5271;44.422;26.092;2023-02-01T00:29:11;1.70;;;1.70;;
10446;SDS011;5271;44.422;26.092;2023-02-01T00:31:39;1.70;;;1.70;;
10446;SDS011;5271;44.422;26.092;2023-02-01T00:34:06;1.70;;;1.70;;
10446;SDS011;5271;44.422;26.092;2023-02-01T00:36:35;1.70;;;1.70;;
10446;SDS011;5271;44.422;26.092;2023-02-01T00:39:01;1.70;;;1.70;;
10446;SDS011;5271;44.422;26.092;2023-02-01T00:41:28;1.60;;;1.60;;
10446;SDS011;5271;44.422;26.092;2023-02-01T00:43:57;1.67;;;1.67;;
10446;SDS011;5271;44.422;26.092;2023-02-01T00:46:23;1.70;;;1.70;;
10446;SDS011;5271;44.422;26.092;2023-02-01T00:48:51;1.70;;;1.70;;
10446;SDS011;5271;44.422;26.092;2023-02-01T00:51:19;1.70;;;1.70;;
10446;SDS011;5271;44.422;26.092;2023-02-01T00:53:48;1.60;;;1.60;;
10446;SDS011;5271;44.422;26.092;2023-02-01T00:56:15;1.70;;;1.70;;
10446;SDS011;5271;44.422;26.092;2023-02-01T00:58:43;1.70;;;1.70;;
10446;SDS011;5271;44.422;26.092;2023-02-01T01:01:12;1.60;;;1.60;;
10446;SDS011;5271;44.422;26.092;2023-02-01T01:03:40;1.70;;;1.70;;
10446;SDS011;5271;44.422;26.092;2023-02-01T01:06:10;1.70;;;1.70;;
10446;SDS011;5271;44.422;26.092;2023-02-01T01:08:38;1.70;;;1.70;;
10446;SDS011;5271;44.422;26.092;2023-02-01T01:11:06;1.70;;;1.70;;
10446;SDS011;5271;44.422;26.092;2023-02-01T01:13:33;1.70;;;1.70;;
10446;SDS011;5271;44.422;26.092;2023-02-01T01:16:01;1.70;;;1.70;;
10446;SDS011;5271;44.422;26.092;2023-02-01T01:18:30;1.70;;;1.70;;
10446;SDS011;5271;44.422;26.092;2023-02-01T01:20:58;1.70;;;1.70;;
10446;SDS011;5271;44.422;26.092;2023-02-01T01:23:25;1.60;;;1.60;;
10446;SDS011;5271;44.422;26.092;2023-02-01T01:25:52;1.70;;;1.70;;
10446;SDS011;5271;44.422;26.092;2023-02-01T01:28:20;1.70;;;1.70;;
10446;SDS011;5271;44.422;26.092;2023-02-01T01:30:46;1.70;;;1.70;;
10446;SDS011;5271;44.422;26.092;2023-02-01T01:33:13;1.77;;;1.77;;
10446;SDS011;5271;44.422;26.092;2023-02-01T01:35:42;1.70;;;1.70;;
10446;SDS011;5271;44.422;26.092;2023-02-01T01:38:09;1.70;;;1.70;;
10446;SDS011;5271;44.422;26.092;2023-02-01T01:40:36;1.80;;;1.80;;
10446;SDS011;5271;44.422;26.092;2023-02-01T01:43:05;1.80;;;1.80;;
10446;SDS011;5271;44.422;26.092;2023-02-01T01:45:39;1.73;;;1.73;;
10446;SDS011;5271;44.422;26.092;2023-02-01T01:48:07;1.70;;;1.70;;
10446;SDS011;5271;44.422;26.092;2023-02-01T01:50:42;1.70;;;1.70;;
10446;SDS011;5271;44.422;26.092;2023-02-01T01:53:14;1.70;;;1.70;;
10446;SDS011;5271;44.422;26.092;2023-02-01T01:55:44;1.70;;;1.70;;
10446;SDS011;5271;44.422;26.092;2023-02-01T01:58:14;1.80;;;1.80;;
10446;SDS011;5271;44.422;26.092;2023-02-01T02:00:44;1.77;;;1.77;;
10446;SDS011;5271;44.422;26.092;2023-02-01T02:03:13;1.70;;;1.70;;
10446;SDS011;5271;44.422;26.092;2023-02-01T02:05:50;1.70;;;1.70;;
10446;SDS011;5271;44.422;26.092;2023-02-01T02:08:18;1.70;;;1.70;;
10446;SDS011;5271;44.422;26.092;2023-02-01T02:10:46;1.70;;;1.70;;
10446;SDS011;5271;44.422;26.092;2023-02-01T02:13:26;1.80;;;1.80;;
10446;SDS011;5271;44.422;26.092;2023-02-01T02:15:58;1.80;;;1.80;;
10446;SDS011;5271;44.422;26.092;2023-02-01T02:18:38;1.77;;;1.77;;
10446;SDS011;5271;44.422;26.092;2023-02-01T02:21:14;1.70;;;1.70;;
10446;SDS011;5271;44.422;26.092;2023-02-01T02:27:02;1.80;;;1.80;;
10446;SDS011;5271;44.422;26.092;2023-02-01T02:32:53;1.70;;;1.70;;
10446;SDS011;5271;44.422;26.092;2023-02-01T02:35:46;1.90;;;1.90;;
10446;SDS011;5271;44.422;26.092;2023-02-01T02:38:17;1.70;;;1.70;;
10446;SDS011;5271;44.422;26.092;2023-02-01T02:40:51;1.80;;;1.80;;
10446;SDS011;5271;44.422;26.092;2023-02-01T02:43:29;1.70;;;1.70;;
10446;SDS011;5271;44.422;26.092;2023-02-01T02:46:21;1.90;;;1.90;;
10446;SDS011;5271;44.422;26.092;2023-02-01T02:49:11;1.90;;;1.90;;
10446;SDS011;5271;44.422;26.092;2023-02-01T02:51:42;1.90;;;1.90;;
10446;SDS011;5271;44.422;26.092;2023-02-01T02:54:31;1.87;;;1.87;;
10446;SDS011;5271;44.422;26.092;2023-02-01T02:57:18;1.90;;;1.90;;
10446;SDS011;5271;44.422;26.092;2023-02-01T03:00:05;1.90;;;1.90;;
10446;SDS011;5271;44.422;26.092;2023-02-01T03:02:53;1.90;;;1.90;;
10446;SDS011;5271;44.422;26.092;2023-02-01T03:05:41;1.93;;;1.93;;
10446;SDS011;5271;44.422;26.092;2023-02-01T03:08:10;1.90;;;1.90;;
10446;SDS011;5271;44.422;26.092;2023-02-01T03:10:43;1.90;;;1.90;;
10446;SDS011;5271;44.422;26.092;2023-02-01T03:13:15;1.80;;;1.80;;
10446;SDS011;5271;44.422;26.092;2023-02-01T03:15:50;2.00;;;2.00;;
10446;SDS011;5271;44.422;26.092;2023-02-01T03:18:22;1.80;;;1.80;;
10446;SDS011;5271;44.422;26.092;2023-02-01T03:20:57;2.00;;;2.00;;
10446;SDS011;5271;44.422;26.092;2023-02-01T03:23:29;1.90;;;1.90;;
10446;SDS011;5271;44.422;26.092;2023-02-01T03:25:59;1.87;;;1.87;;
10446;SDS011;5271;44.422;26.092;2023-02-01T03:28:29;1.80;;;1.80;;
10446;SDS011;5271;44.422;26.092;2023-02-01T03:30:59;1.90;;;1.90;;
10446;SDS011;5271;44.422;26.092;2023-02-01T03:33:27;1.90;;;1.90;;
10446;SDS011;5271;44.422;26.092;2023-02-01T03:35:58;1.97;;;1.97;;
10446;SDS011;5271;44.422;26.092;2023-02-01T03:38:37;1.87;;;1.87;;
10446;SDS011;5271;44.422;26.092;2023-02-01T03:41:10;1.90;;;1.90;;
10446;SDS011;5271;44.422;26.092;2023-02-01T03:43:43;1.90;;;1.90;;
10446;SDS011;5271;44.422;26.092;2023-02-01T03:46:18;2.00;;;2.00;;
10446;SDS011;5271;44.422;26.092;2023-02-01T03:48:52;1.90;;;1.90;;
10446;SDS011;5271;44.422;26.092;2023-02-01T03:51:21;1.90;;;1.90;;
10446;SDS011;5271;44.422;26.092;2023-02-01T03:53:51;1.93;;;1.93;;
10446;SDS011;5271;44.422;26.092;2023-02-01T03:56:19;2.00;;;2.00;;
10446;SDS011;5271;44.422;26.092;2023-02-01T03:58:49;1.90;;;1.90;;
10446;SDS011;5271;44.422;26.092;2023-02-01T04:01:24;2.00;;;2.00;;
10446;SDS011;5271;44.422;26.092;2023-02-01T04:03:53;1.90;;;1.90;;
10446;SDS011;5271;44.422;26.092;2023-02-01T04:06:20;1.90;;;1.90;;
10446;SDS011;5271;44.422;26.092;2023-02-01T04:08:48;1.87;;;1.87;;
10446;SDS011;5271;44.422;26.092;2023-02-01T04:11:16;1.83;;;1.83;;
10446;SDS011;5271;44.422;26.092;2023-02-01T04:13:44;1.70;;;1.70;;
10446;SDS011;5271;44.422;26.092;2023-02-01T04:16:11;1.80;;;1.80;;
10446;SDS011;5271;44.422;26.092;2023-02-01T04:18:38;1.90;;;1.90;;
10446;SDS011;5271;44.422;26.092;2023-02-01T04:21:05;1.80;;;1.80;;
10446;SDS011;5271;44.422;26.092;2023-02-01T04:23:33;1.80;;;1.80;;
10446;SDS011;5271;44.422;26.092;2023-02-01T04:26:02;1.90;;;1.90;;
10446;SDS011;5271;44.422;26.092;2023-02-01T04:28:29;1.90;;;1.90;;
10446;SDS011;5271;44.422;26.092;2023-02-01T04:30:56;1.80;;;1.80;;
10446;SDS011;5271;44.422;26.092;2023-02-01T04:33:23;1.90;;;1.90;;
10446;SDS011;5271;44.422;26.092;2023-02-01T04:35:50;1.80;;;1.80;;
10446;SDS011;5271;44.422;26.092;2023-02-01T04:38:17;1.80;;;1.80;;
10446;SDS011;5271;44.422;26.092;2023-02-01T04:40:47;1.80;;;1.80;;
10446;SDS011;5271;44.422;26.092;2023-02-01T04:43:14;1.70;;;1.70;;
10446;SDS011;5271;44.422;26.092;2023-02-01T04:45:45;1.80;;;1.80;;
10446;SDS011;5271;44.422;26.092;2023-02-01T04:48:13;1.90;;;1.90;;
10446;SDS011;5271;44.422;26.092;2023-02-01T04:50:40;1.80;;;1.80;;
10446;SDS011;5271;44.422;26.092;2023-02-01T04:53:07;1.90;;;1.90;;
10446;SDS011;5271;44.422;26.092;2023-02-01T04:55:34;1.90;;;1.90;;
10446;SDS011;5271;44.422;26.092;2023-02-01T04:58:02;1.80;;;1.80;;
10446;SDS011;5271;44.422;26.092;2023-02-01T05:00:29;1.87;;;1.87;;
10446;SDS011;5271;44.422;26.092;2023-02-01T05:02:55;1.90;;;1.90;;
10446;SDS011;5271;44.422;26.092;2023-02-01T05:05:22;1.80;;;1.80;;
10446;SDS011;5271;44.422;26.092;2023-02-01T05:07:49;2.00;;;2.00;;
10446;SDS011;5271;44.422;26.092;2023-02-01T05:10:16;1.87;;;1.87;;
10446;SDS011;5271;44.422;26.092;2023-02-01T05:12:43;1.90;;;1.90;;
10446;SDS011;5271;44.422;26.092;2023-02-01T05:15:29;1.80;;;1.80;;
10446;SDS011;5271;44.422;26.092;2023-02-01T05:17:57;1.83;;;1.83;;
10446;SDS011;5271;44.422;26.092;2023-02-01T05:20:24;1.97;;;1.97;;
10446;SDS011;5271;44.422;26.092;2023-02-01T05:22:51;1.90;;;1.90;;
10446;SDS011;5271;44.422;26.092;2023-02-01T05:25:18;1.80;;;1.80;;
10446;SDS011;5271;44.422;26.092;2023-02-01T05:27:45;1.90;;;1.90;;
10446;SDS011;5271;44.422;26.092;2023-02-01T05:30:12;1.80;;;1.80;;
10446;SDS011;5271;44.422;26.092;2023-02-01T05:32:40;1.70;;;1.70;;
10446;SDS011;5271;44.422;26.092;2023-02-01T05:35:08;1.80;;;1.80;;
10446;SDS011;5271;44.422;26.092;2023-02-01T05:37:35;1.90;;;1.90;;
10446;SDS011;5271;44.422;26.092;2023-02-01T05:40:02;1.83;;;1.83;;
10446;SDS011;5271;44.422;26.092;2023-02-01T05:42:29;1.90;;;1.90;;
10446;SDS011;5271;44.422;26.092;2023-02-01T05:44:56;1.80;;;1.80;;
10446;SDS011;5271;44.422;26.092;2023-02-01T05:47:23;1.90;;;1.90;;
10446;SDS011;5271;44.422;26.092;2023-02-01T05:49:51;1.90;;;1.90;;
10446;SDS011;5271;44.422;26.092;2023-02-01T05:52:18;1.80;;;1.80;;
10446;SDS011;5271;44.422;26.092;2023-02-01T05:54:45;1.80;;;1.80;;
10446;SDS011;5271;44.422;26.092;2023-02-01T05:57:12;1.80;;;1.80;;
10446;SDS011;5271;44.422;26.092;2023-02-01T05:59:40;1.80;;;1.80;;
10446;SDS011;5271;44.422;26.092;2023-02-01T06:02:09;1.90;;;1.90;;
10446;SDS011;5271;44.422;26.092;2023-02-01T06:04:36;1.83;;;1.83;;
10446;SDS011;5271;44.422;26.092;2023-02-01T06:07:05;1.70;;;1.70;;
10446;SDS011;5271;44.422;26.092;2023-02-01T06:09:34;1.80;;;1.80;;
10446;SDS011;5271;44.422;26.092;2023-02-01T06:12:02;1.83;;;1.83;;
10446;SDS011;5271;44.422;26.092;2023-02-01T06:14:29;1.90;;;1.90;;
10446;SDS011;5271;44.422;26.092;2023-02-01T06:16:55;1.93;;;1.93;;
10446;SDS011;5271;44.422;26.092;2023-02-01T06:19:23;1.70;;;1.70;;
10446;SDS011;5271;44.422;26.092;2023-02-01T06:21:49;1.80;;;1.80;;
10446;SDS011;5271;44.422;26.092;2023-02-01T06:24:18;1.77;;;1.77;;
10446;SDS011;5271;44.422;26.092;2023-02-01T06:26:44;1.80;;;1.80;;
10446;SDS011;5271;44.422;26.092;2023-02-01T06:29:12;1.80;;;1.80;;
10446;SDS011;5271;44.422;26.092;2023-02-01T06:31:39;1.80;;;1.80;;
10446;SDS011;5271;44.422;26.092;2023-02-01T06:34:07;1.80;;;1.80;;
10446;SDS011;5271;44.422;26.092;2023-02-01T06:36:34;2.00;;;2.00;;
10446;SDS011;5271;44.422;26.092;2023-02-01T06:39:01;2.00;;;2.00;;
10446;SDS011;5271;44.422;26.092;2023-02-01T06:41:30;1.77;;;1.77;;
10446;SDS011;5271;44.422;26.092;2023-02-01T06:43:59;1.90;;;1.90;;
10446;SDS011;5271;44.422;26.092;2023-02-01T06:46:26;1.90;;;1.90;;
10446;SDS011;5271;44.422;26.092;2023-02-01T06:48:53;1.80;;;1.80;;
10446;SDS011;5271;44.422;26.092;2023-02-01T06:51:21;1.80;;;1.80;;
10446;SDS011;5271;44.422;26.092;2023-02-01T06:53:49;2.00;;;2.00;;
10446;SDS011;5271;44.422;26.092;2023-02-01T06:56:16;1.90;;;1.90;;
10446;SDS011;5271;44.422;26.092;2023-02-01T06:58:45;1.63;;;1.63;;
10446;SDS011;5271;44.422;26.092;2023-02-01T07:01:12;1.80;;;1.80;;
10446;SDS011;5271;44.422;26.092;2023-02-01T07:03:40;1.80;;;1.80;;
10446;SDS011;5271;44.422;26.092;2023-02-01T07:06:07;1.80;;;1.80;;
10446;SDS011;5271;44.422;26.092;2023-02-01T07:08:36;1.90;;;1.90;;
10446;SDS011;5271;44.422;26.092;2023-02-01T07:11:04;1.90;;;1.90;;
10446;SDS011;5271;44.422;26.092;2023-02-01T07:13:31;1.70;;;1.70;;
10446;SDS011;5271;44.422;26.092;2023-02-01T07:16:00;1.87;;;1.87;;
10446;SDS011;5271;44.422;26.092;2023-02-01T07:18:29;1.70;;;1.70;;
10446;SDS011;5271;44.422;26.092;2023-02-01T07:20:57;1.80;;;1.80;;
10446;SDS011;5271;44.422;26.092;2023-02-01T07:23:25;1.80;;;1.80;;
10446;SDS011;5271;44.422;26.092;2023-02-01T07:25:53;1.80;;;1.80;;
10446;SDS011;5271;44.422;26.092;2023-02-01T07:28:21;1.90;;;1.90;;
10446;SDS011;5271;44.422;26.092;2023-02-01T07:30:48;1.80;;;1.80;;
10446;SDS011;5271;44.422;26.092;2023-02-01T07:33:17;1.87;;;1.87;;
10446;SDS011;5271;44.422;26.092;2023-02-01T07:35:45;1.90;;;1.90;;
10446;SDS011;5271;44.422;26.092;2023-02-01T07:38:12;1.90;;;1.90;;
10446;SDS011;5271;44.422;26.092;2023-02-01T07:40:39;1.80;;;1.80;;
10446;SDS011;5271;44.422;26.092;2023-02-01T07:43:06;1.80;;;1.80;;
10446;SDS011;5271;44.422;26.092;2023-02-01T07:45:33;1.90;;;1.90;;
10446;SDS011;5271;44.422;26.092;2023-02-01T07:48:01;1.80;;;1.80;;
10446;SDS011;5271;44.422;26.092;2023-02-01T07:50:29;1.87;;;1.87;;
10446;SDS011;5271;44.422;26.092;2023-02-01T07:52:58;1.67;;;1.67;;
10446;SDS011;5271;44.422;26.092;2023-02-01T07:55:26;1.80;;;1.80;;
10446;SDS011;5271;44.422;26.092;2023-02-01T07:57:52;1.70;;;1.70;;
10446;SDS011;5271;44.422;26.092;2023-02-01T08:00:23;1.80;;;1.80;;
10446;SDS011;5271;44.422;26.092;2023-02-01T08:03:19;1.90;;;1.90;;
10446;SDS011;5271;44.422;26.092;2023-02-01T08:05:47;1.80;;;1.80;;
10446;SDS011;5271;44.422;26.092;2023-02-01T08:08:14;1.90;;;1.90;;
10446;SDS011;5271;44.422;26.092;2023-02-01T08:10:41;1.80;;;1.80;;
10446;SDS011;5271;44.422;26.092;2023-02-01T08:13:08;1.90;;;1.90;;
10446;SDS011;5271;44.422;26.092;2023-02-01T08:15:35;1.90;;;1.90;;
10446;SDS011;5271;44.422;26.092;2023-02-01T08:18:02;1.90;;;1.90;;
10446;SDS011;5271;44.422;26.092;2023-02-01T08:20:29;1.77;;;1.77;;
10446;SDS011;5271;44.422;26.092;2023-02-01T08:22:57;1.80;;;1.80;;
10446;SDS011;5271;44.422;26.092;2023-02-01T08:25:24;1.80;;;1.80;;
10446;SDS011;5271;44.422;26.092;2023-02-01T08:27:52;1.70;;;1.70;;
10446;SDS011;5271;44.422;26.092;2023-02-01T08:30:20;1.70;;;1.70;;
10446;SDS011;5271;44.422;26.092;2023-02-01T08:32:47;1.70;;;1.70;;
10446;SDS011;5271;44.422;26.092;2023-02-01T08:35:14;1.60;;;1.60;;
10446;SDS011;5271;44.422;26.092;2023-02-01T08:37:41;1.70;;;1.70;;
10446;SDS011;5271;44.422;26.092;2023-02-01T08:40:10;1.80;;;1.80;;
10446;SDS011;5271;44.422;26.092;2023-02-01T08:42:38;1.70;;;1.70;;
10446;SDS011;5271;44.422;26.092;2023-02-01T08:45:18;1.70;;;1.70;;
10446;SDS011;5271;44.422;26.092;2023-02-01T08:47:46;1.63;;;1.63;;
10446;SDS011;5271;44.422;26.092;2023-02-01T08:50:13;1.73;;;1.73;;
10446;SDS011;5271;44.422;26.092;2023-02-01T08:52:40;1.63;;;1.63;;
10446;SDS011;5271;44.422;26.092;2023-02-01T08:55:08;1.60;;;1.60;;
10446;SDS011;5271;44.422;26.092;2023-02-01T08:57:37;1.70;;;1.70;;
10446;SDS011;5271;44.422;26.092;2023-02-01T09:00:05;1.70;;;1.70;;
10446;SDS011;5271;44.422;26.092;2023-02-01T09:02:34;1.70;;;1.70;;
10446;SDS011;5271;44.422;26.092;2023-02-01T09:05:01;1.70;;;1.70;;
10446;SDS011;5271;44.422;26.092;2023-02-01T09:07:29;1.70;;;1.70;;
10446;SDS011;5271;44.422;26.092;2023-02-01T09:09:56;1.70;;;1.70;;
10446;SDS011;5271;44.422;26.092;2023-02-01T09:12:27;1.50;;;1.50;;
10446;SDS011;5271;44.422;26.092;2023-02-01T09:14:54;1.60;;;1.60;;
10446;SDS011;5271;44.422;26.092;2023-02-01T09:17:21;1.50;;;1.50;;
10446;SDS011;5271;44.422;26.092;2023-02-01T09:19:48;1.50;;;1.50;;
10446;SDS011;5271;44.422;26.092;2023-02-01T09:22:15;1.53;;;1.53;;
10446;SDS011;5271;44.422;26.092;2023-02-01T09:24:42;1.60;;;1.60;;
10446;SDS011;5271;44.422;26.092;2023-02-01T09:27:09;1.60;;;1.60;;
10446;SDS011;5271;44.422;26.092;2023-02-01T09:29:37;1.60;;;1.60;;
10446;SDS011;5271;44.422;26.092;2023-02-01T09:32:04;1.60;;;1.60;;
10446;SDS011;5271;44.422;26.092;2023-02-01T09:34:31;1.70;;;1.70;;
10446;SDS011;5271;44.422;26.092;2023-02-01T09:36:58;1.50;;;1.50;;
10446;SDS011;5271;44.422;26.092;2023-02-01T09:39:25;1.63;;;1.63;;
10446;SDS011;5271;44.422;26.092;2023-02-01T09:41:56;1.60;;;1.60;;
10446;SDS011;5271;44.422;26.092;2023-02-01T09:44:35;1.60;;;1.60;;
10446;SDS011;5271;44.422;26.092;2023-02-01T09:47:16;1.60;;;1.60;;
10446;SDS011;5271;44.422;26.092;2023-02-01T09:49:47;1.60;;;1.60;;
10446;SDS011;5271;44.422;26.092;2023-02-01T09:52:19;1.60;;;1.60;;
10446;SDS011;5271;44.422;26.092;2023-02-01T09:54:52;1.60;;;1.60;;
10446;SDS011;5271;44.422;26.092;2023-02-01T09:57:27;1.60;;;1.60;;
10446;SDS011;5271;44.422;26.092;2023-02-01T10:00:02;1.70;;;1.70;;
10446;SDS011;5271;44.422;26.092;2023-02-01T10:02:39;1.70;;;1.70;;
10446;SDS011;5271;44.422;26.092;2023-02-01T10:05:11;1.70;;;1.70;;
10446;SDS011;5271;44.422;26.092;2023-02-01T10:07:42;1.70;;;1.70;;
10446;SDS011;5271;44.422;26.092;2023-02-01T10:10:17;1.67;;;1.67;;
10446;SDS011;5271;44.422;26.092;2023-02-01T10:12:52;1.70;;;1.70;;
10446;SDS011;5271;44.422;26.092;2023-02-01T10:15:42;1.60;;;1.60;;
10446;SDS011;5271;44.422;26.092;2023-02-01T10:18:28;1.60;;;1.60;;
10446;SDS011;5271;44.422;26.092;2023-02-01T10:21:05;1.70;;;1.70;;
10446;SDS011;5271;44.422;26.092;2023-02-01T10:23:52;1.70;;;1.70;;
10446;SDS011;5271;44.422;26.092;2023-02-01T10:26:35;1.60;;;1.60;;
10446;SDS011;5271;44.422;26.092;2023-02-01T10:29:10;1.40;;;1.40;;
10446;SDS011;5271;44.422;26.092;2023-02-01T10:31:43;1.30;;;1.30;;
10446;SDS011;5271;44.422;26.092;2023-02-01T10:34:13;1.20;;;1.20;;
10446;SDS011;5271;44.422;26.092;2023-02-01T10:36:49;1.00;;;1.00;;
10446;SDS011;5271;44.422;26.092;2023-02-01T10:39:19;0.90;;;0.90;;
10446;SDS011;5271;44.422;26.092;2023-02-01T10:41:47;0.70;;;0.70;;
10446;SDS011;5271;44.422;26.092;2023-02-01T10:44:15;0.60;;;0.60;;
10446;SDS011;5271;44.422;26.092;2023-02-01T10:46:45;0.57;;;0.57;;
10446;SDS011;5271;44.422;26.092;2023-02-01T10:49:13;0.40;;;0.40;;
10446;SDS011;5271;44.422;26.092;2023-02-01T10:51:45;0.40;;;0.40;;
10446;SDS011;5271;44.422;26.092;2023-02-01T10:54:16;0.30;;;0.30;;
10446;SDS011;5271;44.422;26.092;2023-02-01T10:56:45;0.30;;;0.30;;
10446;SDS011;5271;44.422;26.092;2023-02-01T10:59:15;0.20;;;0.20;;
10446;SDS011;5271;44.422;26.092;2023-02-01T11:01:46;0.30;;;0.30;;
10446;SDS011;5271;44.422;26.092;2023-02-01T11:04:15;0.30;;;0.30;;
10446;SDS011;5271;44.422;26.092;2023-02-01T11:06:45;0.20;;;0.20;;
10446;SDS011;5271;44.422;26.092;2023-02-01T11:09:16;0.20;;;0.20;;
10446;SDS011;5271;44.422;26.092;2023-02-01T11:11:53;0.20;;;0.20;;
10446;SDS011;5271;44.422;26.092;2023-02-01T11:14:26;0.20;;;0.20;;
10446;SDS011;5271;44.422;26.092;2023-02-01T11:17:01;0.20;;;0.20;;
10446;SDS011;5271;44.422;26.092;2023-02-01T11:19:45;0.20;;;0.20;;
10446;SDS011;5271;44.422;26.092;2023-02-01T11:22:13;0.27;;;0.27;;
10446;SDS011;5271;44.422;26.092;2023-02-01T11:24:40;0.40;;;0.40;;
10446;SDS011;5271;44.422;26.092;2023-02-01T11:27:13;0.40;;;0.40;;
10446;SDS011;5271;44.422;26.092;2023-02-01T11:29:43;0.50;;;0.50;;
10446;SDS011;5271;44.422;26.092;2023-02-01T11:32:15;0.47;;;0.47;;
10446;SDS011;5271;44.422;26.092;2023-02-01T11:34:45;0.60;;;0.60;;
10446;SDS011;5271;44.422;26.092;2023-02-01T11:37:16;0.70;;;0.70;;
10446;SDS011;5271;44.422;26.092;2023-02-01T11:39:53;0.70;;;0.70;;
10446;SDS011;5271;44.422;26.092;2023-02-01T11:42:21;0.80;;;0.80;;
10446;SDS011;5271;44.422;26.092;2023-02-01T11:44:48;0.80;;;0.80;;
10446;SDS011;5271;44.422;26.092;2023-02-01T11:47:20;0.80;;;0.80;;
10446;SDS011;5271;44.422;26.092;2023-02-01T11:49:49;0.90;;;0.90;;
10446;SDS011;5271;44.422;26.092;2023-02-01T11:52:18;0.90;;;0.90;;
10446;SDS011;5271;44.422;26.092;2023-02-01T11:55:01;1.00;;;1.00;;
10446;SDS011;5271;44.422;26.092;2023-02-01T11:57:43;1.07;;;1.07;;
10446;SDS011;5271;44.422;26.092;2023-02-01T12:00:28;1.07;;;1.07;;
10446;SDS011;5271;44.422;26.092;2023-02-01T12:03:33;0.90;;;0.90;;
10446;SDS011;5271;44.422;26.092;2023-02-01T12:06:23;0.90;;;0.90;;
10446;SDS011;5271;44.422;26.092;2023-02-01T12:09:01;0.90;;;0.90;;
10446;SDS011;5271;44.422;26.092;2023-02-01T12:11:39;0.80;;;0.80;;
10446;SDS011;5271;44.422;26.092;2023-02-01T12:14:21;0.80;;;0.80;;
10446;SDS011;5271;44.422;26.092;2023-02-01T12:17:06;0.80;;;0.80;;
10446;SDS011;5271;44.422;26.092;2023-02-01T12:19:52;0.80;;;0.80;;
10446;SDS011;5271;44.422;26.092;2023-02-01T12:22:31;0.80;;;0.80;;
10446;SDS011;5271;44.422;26.092;2023-02-01T12:28:07;0.90;;;0.90;;
10446;SDS011;5271;44.422;26.092;2023-02-01T12:31:02;0.90;;;0.90;;
10446;SDS011;5271;44.422;26.092;2023-02-01T12:33:48;1.00;;;1.00;;
10446;SDS011;5271;44.422;26.092;2023-02-01T12:36:30;1.00;;;1.00;;
10446;SDS011;5271;44.422;26.092;2023-02-01T12:39:07;1.00;;;1.00;;
10446;SDS011;5271;44.422;26.092;2023-02-01T12:41:46;1.00;;;1.00;;
10446;SDS011;5271;44.422;26.092;2023-02-01T12:44:24;1.10;;;1.10;;
10446;SDS011;5271;44.422;26.092;2023-02-01T12:46:59;1.10;;;1.10;;
10446;SDS011;5271;44.422;26.092;2023-02-01T12:49:34;1.10;;;1.10;;
10446;SDS011;5271;44.422;26.092;2023-02-01T12:52:11;1.20;;;1.20;;
10446;SDS011;5271;44.422;26.092;2023-02-01T12:54:45;1.20;;;1.20;;
10446;SDS011;5271;44.422;26.092;2023-02-01T12:57:16;1.20;;;1.20;;
10446;SDS011;5271;44.422;26.092;2023-02-01T12:59:48;1.17;;;1.17;;
10446;SDS011;5271;44.422;26.092;2023-02-01T13:02:22;1.20;;;1.20;;
10446;SDS011;5271;44.422;26.092;2023-02-01T13:04:56;1.20;;;1.20;;
10446;SDS011;5271;44.422;26.092;2023-02-01T13:07:30;1.20;;;1.20;;
10446;SDS011;5271;44.422;26.092;2023-02-01T13:10:05;1.17;;;1.17;;
10446;SDS011;5271;44.422;26.092;2023-02-01T13:12:40;1.20;;;1.20;;
10446;SDS011;5271;44.422;26.092;2023-02-01T13:15:14;1.17;;;1.17;;
10446;SDS011;5271;44.422;26.092;2023-02-01T13:17:45;1.30;;;1.30;;
10446;SDS011;5271;44.422;26.092;2023-02-01T13:20:16;1.20;;;1.20;;
10446;SDS011;5271;44.422;26.092;2023-02-01T13:22:50;1.20;;;1.20;;
10446;SDS011;5271;44.422;26.092;2023-02-01T13:25:26;1.30;;;1.30;;
10446;SDS011;5271;44.422;26.092;2023-02-01T13:27:59;1.30;;;1.30;;
10446;SDS011;5271;44.422;26.092;2023-02-01T13:30:34;1.30;;;1.30;;
10446;SDS011;5271;44.422;26.092;2023-02-01T13:39:22;1.30;;;1.30;;
10446;SDS011;5271;44.422;26.092;2023-02-01T13:42:02;1.40;;;1.40;;
10446;SDS011;5271;44.422;26.092;2023-02-01T13:44:31;1.40;;;1.40;;
10446;SDS011;5271;44.422;26.092;2023-02-01T13:47:08;1.43;;;1.43;;
10446;SDS011;5271;44.422;26.092;2023-02-01T13:49:39;1.40;;;1.40;;
10446;SDS011;5271;44.422;26.092;2023-02-01T13:52:17;1.50;;;1.50;;
10446;SDS011;5271;44.422;26.092;2023-02-01T13:55:01;1.50;;;1.50;;
10446;SDS011;5271;44.422;26.092;2023-02-01T13:57:49;1.40;;;1.40;;
10446;SDS011;5271;44.422;26.092;2023-02-01T14:00:26;1.40;;;1.40;;
10446;SDS011;5271;44.422;26.092;2023-02-01T14:03:06;1.40;;;1.40;;
10446;SDS011;5271;44.422;26.092;2023-02-01T14:08:44;1.40;;;1.40;;
10446;SDS011;5271;44.422;26.092;2023-02-01T14:11:41;1.50;;;1.50;;
10446;SDS011;5271;44.422;26.092;2023-02-01T14:23:21;1.40;;;1.40;;
10446;SDS011;5271;44.422;26.092;2023-02-01T14:28:51;1.40;;;1.40;;
10446;SDS011;5271;44.422;26.092;2023-02-01T14:34:31;1.40;;;1.40;;
10446;SDS011;5271;44.422;26.092;2023-02-01T14:37:08;1.40;;;1.40;;
10446;SDS011;5271;44.422;26.092;2023-02-01T14:39:49;1.40;;;1.40;;
10446;SDS011;5271;44.422;26.092;2023-02-01T14:42:24;1.40;;;1.40;;
10446;SDS011;5271;44.422;26.092;2023-02-01T14:44:54;1.30;;;1.30;;
10446;SDS011;5271;44.422;26.092;2023-02-01T14:47:31;1.40;;;1.40;;
10446;SDS011;5271;44.422;26.092;2023-02-01T14:50:02;1.30;;;1.30;;
10446;SDS011;5271;44.422;26.092;2023-02-01T14:52:45;1.40;;;1.40;;
10446;SDS011;5271;44.422;26.092;2023-02-01T14:55:16;1.50;;;1.50;;
10446;SDS011;5271;44.422;26.092;2023-02-01T14:57:49;1.40;;;1.40;;
10446;SDS011;5271;44.422;26.092;2023-02-01T15:02:50;1.40;;;1.40;;
10446;SDS011;5271;44.422;26.092;2023-02-01T15:05:26;1.40;;;1.40;;
10446;SDS011;5271;44.422;26.092;2023-02-01T15:07:57;1.40;;;1.40;;
10446;SDS011;5271;44.422;26.092;2023-02-01T15:10:30;1.30;;;1.30;;
10446;SDS011;5271;44.422;26.092;2023-02-01T15:13:04;1.27;;;1.27;;
10446;SDS011;5271;44.422;26.092;2023-02-01T15:15:33;1.40;;;1.40;;
10446;SDS011;5271;44.422;26.092;2023-02-01T15:18:01;1.40;;;1.40;;
10446;SDS011;5271;44.422;26.092;2023-02-01T15:20:28;1.40;;;1.40;;
10446;SDS011;5271;44.422;26.092;2023-02-01T15:22:57;1.40;;;1.40;;
10446;SDS011;5271;44.422;26.092;2023-02-01T15:25:26;1.43;;;1.43;;
10446;SDS011;5271;44.422;26.092;2023-02-01T15:27:55;1.40;;;1.40;;
10446;SDS011;5271;44.422;26.092;2023-02-01T15:30:24;1.40;;;1.40;;
10446;SDS011;5271;44.422;26.092;2023-02-01T15:33:03;1.50;;;1.50;;
10446;SDS011;5271;44.422;26.092;2023-02-01T15:35:39;1.50;;;1.50;;
10446;SDS011;5271;44.422;26.092;2023-02-01T15:38:18;1.47;;;1.47;;
10446;SDS011;5271;44.422;26.092;2023-02-01T15:40:57;1.50;;;1.50;;
10446;SDS011;5271;44.422;26.092;2023-02-01T15:43:27;1.50;;;1.50;;
10446;SDS011;5271;44.422;26.092;2023-02-01T15:45:56;1.40;;;1.40;;
10446;SDS011;5271;44.422;26.092;2023-02-01T15:48:25;1.50;;;1.50;;
10446;SDS011;5271;44.422;26.092;2023-02-01T15:50:54;1.40;;;1.40;;